sensor_id;sensor_type;location;lat;lon;timestamp;P1;durP1;ratioP1;P2;durP2;ratioP2
73084;SDS011;62974;49.460;10.892;2023-03-30T00:01:54;3.25;;;1.30;;
73084;SDS011;62974;49.460;10.892;2023-03-30T00:04:50;4.10;;;1.45;;
73084;SDS011;62974;49.460;10.892;2023-03-30T00:07:50;3.97;;;1.20;;
73084;SDS011;62974;49.460;10.892;2023-03-30T00:10:29;1.80;;;1.08;;
73084;SDS011;62974;49.460;10.892;2023-03-30T00:13:14;3.03;;;1.20;;
73084;SDS011;62974;49.460;10.892;2023-03-30T00:16:06;3.10;;;1.33;;
73084;SDS011;62974;49.460;10.892;2023-03-30T00:19:11;3.38;;;1.13;;
73084;SDS011;62974;49.460;10.892;2023-03-30T00:22:06;3.60;;;1.50;;
73084;SDS011;62974;49.460;10.892;2023-03-30T00:25:11;2.58;;;1.02;;
73084;SDS011;62974;49.460;10.892;2023-03-30T00:28:12;4.75;;;1.20;;
73084;SDS011;62974;49.460;10.892;2023-03-30T00:31:04;3.58;;;1.10;;
73084;SDS011;62974;49.460;10.892;2023-03-30T00:33:55;1.85;;;1.00;;
73084;SDS011;62974;49.460;10.892;2023-03-30T00:36:39;2.38;;;1.00;;
73084;SDS011;62974;49.460;10.892;2023-03-30T00:39:19;2.60;;;1.20;;
73084;SDS011;62974;49.460;10.892;2023-03-30T00:42:05;3.17;;;1.23;;
73084;SDS011;62974;49.460;10.892;2023-03-30T00:48:04;1.95;;;0.90;;
73084;SDS011;62974;49.460;10.892;2023-03-30T00:51:12;2.10;;;1.02;;
73084;SDS011;62974;49.460;10.892;2023-03-30T00:54:08;6.88;;;1.08;;
73084;SDS011;62974;49.460;10.892;2023-03-30T00:56:58;2.15;;;1.02;;
73084;SDS011;62974;49.460;10.892;2023-03-30T00:59:49;2.63;;;1.15;;
73084;SDS011;62974;49.460;10.892;2023-03-30T01:02:52;2.20;;;1.02;;
73084;SDS011;62974;49.460;10.892;2023-03-30T01:05:37;1.77;;;1.05;;
73084;SDS011;62974;49.460;10.892;2023-03-30T01:08:16;2.85;;;1.15;;
73084;SDS011;62974;49.460;10.892;2023-03-30T01:11:21;3.65;;;1.30;;
73084;SDS011;62974;49.460;10.892;2023-03-30T01:14:14;2.72;;;1.17;;
73084;SDS011;62974;49.460;10.892;2023-03-30T01:17:14;2.13;;;1.08;;
73084;SDS011;62974;49.460;10.892;2023-03-30T01:20:28;2.95;;;1.10;;
73084;SDS011;62974;49.460;10.892;2023-03-30T01:23:56;2.10;;;1.00;;
73084;SDS011;62974;49.460;10.892;2023-03-30T01:26:57;3.05;;;1.10;;
73084;SDS011;62974;49.460;10.892;2023-03-30T01:33:07;3.00;;;1.45;;
73084;SDS011;62974;49.460;10.892;2023-03-30T01:36:15;2.88;;;1.13;;
73084;SDS011;62974;49.460;10.892;2023-03-30T01:42:41;3.20;;;0.90;;
73084;SDS011;62974;49.460;10.892;2023-03-30T01:45:44;2.00;;;1.05;;
73084;SDS011;62974;49.460;10.892;2023-03-30T01:48:38;1.98;;;0.70;;
73084;SDS011;62974;49.460;10.892;2023-03-30T01:51:30;2.85;;;0.63;;
73084;SDS011;62974;49.460;10.892;2023-03-30T01:54:24;0.22;;;0.22;;
73084;SDS011;62974;49.460;10.892;2023-03-30T02:01:07;1.10;;;0.50;;
73084;SDS011;62974;49.460;10.892;2023-03-30T02:04:11;0.40;;;0.30;;
73084;SDS011;62974;49.460;10.892;2023-03-30T02:07:01;3.10;;;0.93;;
73084;SDS011;62974;49.460;10.892;2023-03-30T02:09:38;1.40;;;0.52;;
73084;SDS011;62974;49.460;10.892;2023-03-30T02:12:34;4.10;;;1.17;;
73084;SDS011;62974;49.460;10.892;2023-03-30T02:15:24;3.63;;;0.93;;
73084;SDS011;62974;49.460;10.892;2023-03-30T02:18:31;3.10;;;0.93;;
73084;SDS011;62974;49.460;10.892;2023-03-30T02:21:22;1.00;;;0.63;;
73084;SDS011;62974;49.460;10.892;2023-03-30T02:24:05;1.20;;;0.60;;
73084;SDS011;62974;49.460;10.892;2023-03-30T02:26:51;1.83;;;1.13;;
73084;SDS011;62974;49.460;10.892;2023-03-30T02:29:44;7.00;;;1.33;;
73084;SDS011;62974;49.460;10.892;2023-03-30T02:32:42;1.63;;;0.52;;
73084;SDS011;62974;49.460;10.892;2023-03-30T02:42:38;1.10;;;1.00;;
73084;SDS011;62974;49.460;10.892;2023-03-30T02:45:59;7.30;;;1.48;;
73084;SDS011;62974;49.460;10.892;2023-03-30T02:49:04;7.43;;;1.67;;
73084;SDS011;62974;49.460;10.892;2023-03-30T02:54:44;7.82;;;1.60;;
73084;SDS011;62974;49.460;10.892;2023-03-30T02:57:53;1.88;;;1.10;;
73084;SDS011;62974;49.460;10.892;2023-03-30T03:01:01;5.18;;;1.10;;
73084;SDS011;62974;49.460;10.892;2023-03-30T03:03:54;0.45;;;0.35;;
73084;SDS011;62974;49.460;10.892;2023-03-30T03:07:10;3.83;;;0.90;;
73084;SDS011;62974;49.460;10.892;2023-03-30T03:10:17;5.75;;;1.60;;
73084;SDS011;62974;49.460;10.892;2023-03-30T03:13:21;5.03;;;1.20;;
73084;SDS011;62974;49.460;10.892;2023-03-30T03:16:08;7.82;;;1.25;;
73084;SDS011;62974;49.460;10.892;2023-03-30T03:19:18;3.15;;;0.75;;
73084;SDS011;62974;49.460;10.892;2023-03-30T03:21:58;1.02;;;0.63;;
73084;SDS011;62974;49.460;10.892;2023-03-30T03:24:57;5.15;;;0.85;;
73084;SDS011;62974;49.460;10.892;2023-03-30T03:27:45;7.18;;;1.65;;
73084;SDS011;62974;49.460;10.892;2023-03-30T03:30:38;7.97;;;1.17;;
73084;SDS011;62974;49.460;10.892;2023-03-30T03:36:24;3.30;;;0.90;;
73084;SDS011;62974;49.460;10.892;2023-03-30T03:39:27;3.80;;;1.42;;
73084;SDS011;62974;49.460;10.892;2023-03-30T03:45:23;4.20;;;0.90;;
73084;SDS011;62974;49.460;10.892;2023-03-30T03:48:11;5.55;;;1.02;;
73084;SDS011;62974;49.460;10.892;2023-03-30T03:51:02;2.72;;;1.00;;
73084;SDS011;62974;49.460;10.892;2023-03-30T03:53:57;1.67;;;0.75;;
73084;SDS011;62974;49.460;10.892;2023-03-30T03:56:44;3.72;;;1.63;;
73084;SDS011;62974;49.460;10.892;2023-03-30T03:59:31;5.30;;;1.13;;
73084;SDS011;62974;49.460;10.892;2023-03-30T04:02:15;6.80;;;1.58;;
73084;SDS011;62974;49.460;10.892;2023-03-30T04:08:17;6.07;;;1.20;;
73084;SDS011;62974;49.460;10.892;2023-03-30T04:10:54;1.10;;;0.65;;
73084;SDS011;62974;49.460;10.892;2023-03-30T04:13:50;3.38;;;1.13;;
73084;SDS011;62974;49.460;10.892;2023-03-30T04:16:28;5.20;;;1.20;;
73084;SDS011;62974;49.460;10.892;2023-03-30T04:19:18;1.92;;;0.50;;
73084;SDS011;62974;49.460;10.892;2023-03-30T04:22:02;7.35;;;0.95;;
73084;SDS011;62974;49.460;10.892;2023-03-30T04:25:02;4.88;;;0.82;;
73084;SDS011;62974;49.460;10.892;2023-03-30T04:27:51;5.47;;;1.23;;
73084;SDS011;62974;49.460;10.892;2023-03-30T04:30:58;4.07;;;0.77;;
73084;SDS011;62974;49.460;10.892;2023-03-30T04:34:00;7.45;;;1.38;;
73084;SDS011;62974;49.460;10.892;2023-03-30T04:37:00;8.05;;;1.15;;
73084;SDS011;62974;49.460;10.892;2023-03-30T04:40:18;4.20;;;1.38;;
73084;SDS011;62974;49.460;10.892;2023-03-30T04:43:33;13.68;;;1.48;;
73084;SDS011;62974;49.460;10.892;2023-03-30T04:46:38;5.93;;;1.58;;
73084;SDS011;62974;49.460;10.892;2023-03-30T04:49:15;1.50;;;0.35;;
73084;SDS011;62974;49.460;10.892;2023-03-30T04:51:51;4.95;;;1.65;;
73084;SDS011;62974;49.460;10.892;2023-03-30T04:54:54;3.05;;;0.80;;
73084;SDS011;62974;49.460;10.892;2023-03-30T04:57:57;7.68;;;1.27;;
73084;SDS011;62974;49.460;10.892;2023-03-30T05:00:51;6.00;;;1.40;;
73084;SDS011;62974;49.460;10.892;2023-03-30T05:03:56;4.90;;;1.25;;
73084;SDS011;62974;49.460;10.892;2023-03-30T05:09:42;9.25;;;1.42;;
73084;SDS011;62974;49.460;10.892;2023-03-30T05:12:32;2.70;;;1.17;;
73084;SDS011;62974;49.460;10.892;2023-03-30T05:15:17;3.92;;;1.20;;
73084;SDS011;62974;49.460;10.892;2023-03-30T05:18:22;3.17;;;1.45;;
73084;SDS011;62974;49.460;10.892;2023-03-30T05:21:21;4.38;;;1.33;;
73084;SDS011;62974;49.460;10.892;2023-03-30T05:24:12;2.92;;;1.20;;
73084;SDS011;62974;49.460;10.892;2023-03-30T05:26:39;6.72;;;1.27;;
73084;SDS011;62974;49.460;10.892;2023-03-30T05:29:07;4.90;;;1.45;;
73084;SDS011;62974;49.460;10.892;2023-03-30T05:31:35;3.40;;;1.20;;
73084;SDS011;62974;49.460;10.892;2023-03-30T05:34:04;4.03;;;1.42;;
73084;SDS011;62974;49.460;10.892;2023-03-30T05:36:31;10.23;;;2.30;;
73084;SDS011;62974;49.460;10.892;2023-03-30T05:39:00;5.00;;;1.45;;
73084;SDS011;62974;49.460;10.892;2023-03-30T05:41:30;1.85;;;0.95;;
73084;SDS011;62974;49.460;10.892;2023-03-30T05:43:57;2.90;;;1.02;;
73084;SDS011;62974;49.460;10.892;2023-03-30T05:46:25;12.57;;;2.13;;
73084;SDS011;62974;49.460;10.892;2023-03-30T05:48:53;9.32;;;2.00;;
73084;SDS011;62974;49.460;10.892;2023-03-30T05:51:21;8.98;;;1.73;;
73084;SDS011;62974;49.460;10.892;2023-03-30T05:53:49;7.47;;;1.88;;
73084;SDS011;62974;49.460;10.892;2023-03-30T05:56:20;8.70;;;1.92;;
73084;SDS011;62974;49.460;10.892;2023-03-30T05:58:48;6.57;;;1.27;;
73084;SDS011;62974;49.460;10.892;2023-03-30T06:01:16;4.88;;;1.15;;
73084;SDS011;62974;49.460;10.892;2023-03-30T06:03:48;6.15;;;1.73;;
73084;SDS011;62974;49.460;10.892;2023-03-30T06:06:19;5.88;;;2.05;;
73084;SDS011;62974;49.460;10.892;2023-03-30T06:08:48;9.27;;;1.48;;
73084;SDS011;62974;49.460;10.892;2023-03-30T06:11:16;4.63;;;1.60;;
73084;SDS011;62974;49.460;10.892;2023-03-30T06:13:52;6.65;;;1.48;;
73084;SDS011;62974;49.460;10.892;2023-03-30T06:16:29;6.65;;;1.33;;
73084;SDS011;62974;49.460;10.892;2023-03-30T06:19:10;7.63;;;1.65;;
73084;SDS011;62974;49.460;10.892;2023-03-30T06:21:39;5.40;;;1.58;;
73084;SDS011;62974;49.460;10.892;2023-03-30T06:24:09;5.07;;;1.80;;
73084;SDS011;62974;49.460;10.892;2023-03-30T06:26:36;12.43;;;2.10;;
73084;SDS011;62974;49.460;10.892;2023-03-30T06:29:04;10.35;;;2.30;;
73084;SDS011;62974;49.460;10.892;2023-03-30T06:31:31;7.00;;;1.45;;
73084;SDS011;62974;49.460;10.892;2023-03-30T06:33:59;4.00;;;1.33;;
73084;SDS011;62974;49.460;10.892;2023-03-30T06:36:27;8.30;;;1.90;;
73084;SDS011;62974;49.460;10.892;2023-03-30T06:39:12;5.45;;;1.63;;
73084;SDS011;62974;49.460;10.892;2023-03-30T06:41:39;5.97;;;1.60;;
73084;SDS011;62974;49.460;10.892;2023-03-30T06:44:10;6.65;;;1.70;;
73084;SDS011;62974;49.460;10.892;2023-03-30T06:46:54;6.68;;;1.63;;
73084;SDS011;62974;49.460;10.892;2023-03-30T06:49:22;5.65;;;1.52;;
73084;SDS011;62974;49.460;10.892;2023-03-30T06:51:49;6.97;;;2.17;;
73084;SDS011;62974;49.460;10.892;2023-03-30T06:54:21;8.18;;;1.95;;
73084;SDS011;62974;49.460;10.892;2023-03-30T06:59:29;3.08;;;0.95;;
73084;SDS011;62974;49.460;10.892;2023-03-30T07:02:03;4.53;;;1.63;;
73084;SDS011;62974;49.460;10.892;2023-03-30T07:04:31;4.07;;;0.93;;
73084;SDS011;62974;49.460;10.892;2023-03-30T07:06:59;6.03;;;1.70;;
73084;SDS011;62974;49.460;10.892;2023-03-30T07:09:29;7.55;;;1.65;;
73084;SDS011;62974;49.460;10.892;2023-03-30T07:12:00;10.32;;;1.67;;
73084;SDS011;62974;49.460;10.892;2023-03-30T07:14:30;4.13;;;1.60;;
73084;SDS011;62974;49.460;10.892;2023-03-30T07:17:02;5.25;;;1.67;;
73084;SDS011;62974;49.460;10.892;2023-03-30T07:19:35;6.40;;;1.50;;
73084;SDS011;62974;49.460;10.892;2023-03-30T07:22:03;5.53;;;2.10;;
73084;SDS011;62974;49.460;10.892;2023-03-30T07:24:32;8.93;;;2.33;;
73084;SDS011;62974;49.460;10.892;2023-03-30T07:27:00;3.65;;;1.42;;
73084;SDS011;62974;49.460;10.892;2023-03-30T07:29:27;8.57;;;1.67;;
73084;SDS011;62974;49.460;10.892;2023-03-30T07:31:58;7.00;;;1.85;;
73084;SDS011;62974;49.460;10.892;2023-03-30T07:34:28;5.75;;;2.08;;
73084;SDS011;62974;49.460;10.892;2023-03-30T07:36:56;7.60;;;2.10;;
73084;SDS011;62974;49.460;10.892;2023-03-30T07:39:25;4.65;;;2.00;;
73084;SDS011;62974;49.460;10.892;2023-03-30T07:41:53;13.85;;;2.50;;
73084;SDS011;62974;49.460;10.892;2023-03-30T07:44:27;7.65;;;2.10;;
73084;SDS011;62974;49.460;10.892;2023-03-30T07:47:05;6.97;;;1.55;;
73084;SDS011;62974;49.460;10.892;2023-03-30T07:49:35;5.78;;;2.05;;
73084;SDS011;62974;49.460;10.892;2023-03-30T07:52:18;7.05;;;2.22;;
73084;SDS011;62974;49.460;10.892;2023-03-30T07:54:55;5.15;;;2.08;;
73084;SDS011;62974;49.460;10.892;2023-03-30T07:57:26;9.82;;;2.25;;
73084;SDS011;62974;49.460;10.892;2023-03-30T07:59:59;6.50;;;2.03;;
73084;SDS011;62974;49.460;10.892;2023-03-30T08:02:29;7.00;;;2.83;;
73084;SDS011;62974;49.460;10.892;2023-03-30T08:05:00;10.90;;;2.60;;
73084;SDS011;62974;49.460;10.892;2023-03-30T08:07:28;8.07;;;2.80;;
73084;SDS011;62974;49.460;10.892;2023-03-30T08:09:55;6.45;;;2.33;;
73084;SDS011;62974;49.460;10.892;2023-03-30T08:12:23;7.75;;;2.08;;
73084;SDS011;62974;49.460;10.892;2023-03-30T08:14:52;6.63;;;1.90;;
73084;SDS011;62974;49.460;10.892;2023-03-30T08:17:20;7.82;;;2.38;;
73084;SDS011;62974;49.460;10.892;2023-03-30T08:19:51;12.55;;;3.05;;
73084;SDS011;62974;49.460;10.892;2023-03-30T08:22:19;11.82;;;3.13;;
73084;SDS011;62974;49.460;10.892;2023-03-30T08:24:46;12.80;;;3.00;;
73084;SDS011;62974;49.460;10.892;2023-03-30T08:27:14;8.15;;;2.90;;
73084;SDS011;62974;49.460;10.892;2023-03-30T08:29:44;6.72;;;2.67;;
73084;SDS011;62974;49.460;10.892;2023-03-30T08:32:18;9.38;;;3.42;;
73084;SDS011;62974;49.460;10.892;2023-03-30T08:34:46;6.85;;;2.35;;
73084;SDS011;62974;49.460;10.892;2023-03-30T08:37:13;9.15;;;2.67;;
73084;SDS011;62974;49.460;10.892;2023-03-30T08:39:41;4.80;;;2.22;;
73084;SDS011;62974;49.460;10.892;2023-03-30T08:42:15;4.93;;;2.08;;
73084;SDS011;62974;49.460;10.892;2023-03-30T08:45:02;6.07;;;1.92;;
73084;SDS011;62974;49.460;10.892;2023-03-30T08:50:03;5.18;;;2.00;;
73084;SDS011;62974;49.460;10.892;2023-03-30T08:52:33;8.85;;;1.98;;
73084;SDS011;62974;49.460;10.892;2023-03-30T08:55:10;10.70;;;2.50;;
73084;SDS011;62974;49.460;10.892;2023-03-30T08:57:53;6.35;;;2.30;;
73084;SDS011;62974;49.460;10.892;2023-03-30T09:00:29;7.45;;;2.95;;
73084;SDS011;62974;49.460;10.892;2023-03-30T09:03:09;8.15;;;3.03;;
73084;SDS011;62974;49.460;10.892;2023-03-30T09:05:50;8.25;;;3.05;;
73084;SDS011;62974;49.460;10.892;2023-03-30T09:08:21;6.13;;;2.30;;
73084;SDS011;62974;49.460;10.892;2023-03-30T09:10:55;6.00;;;2.42;;
73084;SDS011;62974;49.460;10.892;2023-03-30T09:13:27;6.95;;;2.55;;
73084;SDS011;62974;49.460;10.892;2023-03-30T09:15:59;5.95;;;2.42;;
73084;SDS011;62974;49.460;10.892;2023-03-30T09:18:37;7.78;;;3.30;;
73084;SDS011;62974;49.460;10.892;2023-03-30T09:21:08;13.38;;;2.35;;
73084;SDS011;62974;49.460;10.892;2023-03-30T09:23:45;7.15;;;2.08;;
73084;SDS011;62974;49.460;10.892;2023-03-30T09:26:17;7.55;;;2.30;;
73084;SDS011;62974;49.460;10.892;2023-03-30T09:28:54;8.02;;;1.95;;
73084;SDS011;62974;49.460;10.892;2023-03-30T09:31:27;7.75;;;1.95;;
73084;SDS011;62974;49.460;10.892;2023-03-30T09:34:04;9.93;;;2.55;;
73084;SDS011;62974;49.460;10.892;2023-03-30T09:36:41;5.75;;;2.15;;
73084;SDS011;62974;49.460;10.892;2023-03-30T09:39:16;6.35;;;2.30;;
73084;SDS011;62974;49.460;10.892;2023-03-30T09:41:47;6.72;;;2.08;;
73084;SDS011;62974;49.460;10.892;2023-03-30T09:44:27;6.10;;;2.65;;
73084;SDS011;62974;49.460;10.892;2023-03-30T09:47:01;7.68;;;2.10;;
73084;SDS011;62974;49.460;10.892;2023-03-30T09:49:39;6.53;;;2.38;;
73084;SDS011;62974;49.460;10.892;2023-03-30T09:52:07;9.68;;;3.45;;
73084;SDS011;62974;49.460;10.892;2023-03-30T09:54:46;12.52;;;2.65;;
73084;SDS011;62974;49.460;10.892;2023-03-30T09:57:24;7.93;;;2.15;;
73084;SDS011;62974;49.460;10.892;2023-03-30T10:03:05;7.47;;;1.98;;
73084;SDS011;62974;49.460;10.892;2023-03-30T10:05:35;4.88;;;1.80;;
73084;SDS011;62974;49.460;10.892;2023-03-30T10:08:05;4.18;;;1.90;;
73084;SDS011;62974;49.460;10.892;2023-03-30T10:10:44;5.18;;;2.35;;
73084;SDS011;62974;49.460;10.892;2023-03-30T10:13:29;7.22;;;2.53;;
73084;SDS011;62974;49.460;10.892;2023-03-30T10:16:00;9.68;;;2.90;;
73084;SDS011;62974;49.460;10.892;2023-03-30T10:18:34;12.85;;;2.92;;
73084;SDS011;62974;49.460;10.892;2023-03-30T10:21:06;9.27;;;2.83;;
73084;SDS011;62974;49.460;10.892;2023-03-30T10:23:46;10.77;;;2.95;;
73084;SDS011;62974;49.460;10.892;2023-03-30T10:26:26;6.53;;;2.05;;
73084;SDS011;62974;49.460;10.892;2023-03-30T10:28:56;14.65;;;2.72;;
73084;SDS011;62974;49.460;10.892;2023-03-30T10:31:28;10.55;;;2.13;;
73084;SDS011;62974;49.460;10.892;2023-03-30T10:33:57;6.75;;;2.42;;
73084;SDS011;62974;49.460;10.892;2023-03-30T10:36:29;5.28;;;2.03;;
73084;SDS011;62974;49.460;10.892;2023-03-30T10:39:04;11.02;;;2.05;;
73084;SDS011;62974;49.460;10.892;2023-03-30T10:41:37;7.13;;;2.38;;
73084;SDS011;62974;49.460;10.892;2023-03-30T10:44:14;5.55;;;2.33;;
73084;SDS011;62974;49.460;10.892;2023-03-30T10:46:49;6.53;;;2.05;;
73084;SDS011;62974;49.460;10.892;2023-03-30T10:49:23;8.68;;;2.95;;
73084;SDS011;62974;49.460;10.892;2023-03-30T10:52:11;4.05;;;2.10;;
73084;SDS011;62974;49.460;10.892;2023-03-30T10:54:53;9.25;;;3.40;;
73084;SDS011;62974;49.460;10.892;2023-03-30T10:57:33;7.70;;;2.90;;
73084;SDS011;62974;49.460;10.892;2023-03-30T11:00:18;7.15;;;2.50;;
73084;SDS011;62974;49.460;10.892;2023-03-30T11:02:56;2.97;;;1.38;;
73084;SDS011;62974;49.460;10.892;2023-03-30T11:05:36;5.22;;;2.45;;
73084;SDS011;62974;49.460;10.892;2023-03-30T11:08:12;5.50;;;2.22;;
73084;SDS011;62974;49.460;10.892;2023-03-30T11:10:46;4.20;;;2.58;;
73084;SDS011;62974;49.460;10.892;2023-03-30T11:13:17;8.55;;;2.33;;
73084;SDS011;62974;49.460;10.892;2023-03-30T11:15:52;10.57;;;2.08;;
73084;SDS011;62974;49.460;10.892;2023-03-30T11:18:22;4.60;;;1.88;;
73084;SDS011;62974;49.460;10.892;2023-03-30T11:20:55;6.47;;;2.70;;
73084;SDS011;62974;49.460;10.892;2023-03-30T11:23:31;6.00;;;2.17;;
73084;SDS011;62974;49.460;10.892;2023-03-30T11:26:05;9.27;;;2.92;;
73084;SDS011;62974;49.460;10.892;2023-03-30T11:28:38;3.97;;;1.77;;
73084;SDS011;62974;49.460;10.892;2023-03-30T11:31:26;4.65;;;1.95;;
73084;SDS011;62974;49.460;10.892;2023-03-30T11:34:03;9.38;;;2.40;;
73084;SDS011;62974;49.460;10.892;2023-03-30T11:36:41;4.60;;;2.17;;
73084;SDS011;62974;49.460;10.892;2023-03-30T11:39:17;3.88;;;1.65;;
73084;SDS011;62974;49.460;10.892;2023-03-30T11:41:59;2.92;;;1.50;;
73084;SDS011;62974;49.460;10.892;2023-03-30T11:44:33;5.95;;;2.13;;
73084;SDS011;62974;49.460;10.892;2023-03-30T11:47:07;3.67;;;2.13;;
73084;SDS011;62974;49.460;10.892;2023-03-30T11:49:52;5.00;;;1.25;;
73084;SDS011;62974;49.460;10.892;2023-03-30T11:52:32;3.40;;;1.90;;
73084;SDS011;62974;49.460;10.892;2023-03-30T11:55:18;5.20;;;1.75;;
73084;SDS011;62974;49.460;10.892;2023-03-30T11:57:56;5.60;;;1.70;;
73084;SDS011;62974;49.460;10.892;2023-03-30T12:00:37;8.10;;;2.20;;
73084;SDS011;62974;49.460;10.892;2023-03-30T12:03:16;6.43;;;1.63;;
73084;SDS011;62974;49.460;10.892;2023-03-30T12:06:07;1.92;;;1.23;;
73084;SDS011;62974;49.460;10.892;2023-03-30T12:08:47;4.05;;;1.08;;
73084;SDS011;62974;49.460;10.892;2023-03-30T12:11:32;4.10;;;1.52;;
73084;SDS011;62974;49.460;10.892;2023-03-30T12:14:04;5.95;;;1.33;;
73084;SDS011;62974;49.460;10.892;2023-03-30T12:17:00;3.58;;;1.40;;
73084;SDS011;62974;49.460;10.892;2023-03-30T12:19:40;1.52;;;0.98;;
73084;SDS011;62974;49.460;10.892;2023-03-30T12:22:28;2.25;;;1.02;;
73084;SDS011;62974;49.460;10.892;2023-03-30T12:25:06;4.25;;;1.60;;
73084;SDS011;62974;49.460;10.892;2023-03-30T12:27:57;1.50;;;0.95;;
73084;SDS011;62974;49.460;10.892;2023-03-30T12:30:30;1.40;;;0.75;;
73084;SDS011;62974;49.460;10.892;2023-03-30T12:33:10;1.63;;;1.05;;
73084;SDS011;62974;49.460;10.892;2023-03-30T12:35:50;0.73;;;0.47;;
73084;SDS011;62974;49.460;10.892;2023-03-30T12:38:35;2.65;;;1.25;;
73084;SDS011;62974;49.460;10.892;2023-03-30T12:41:08;5.18;;;1.85;;
73084;SDS011;62974;49.460;10.892;2023-03-30T12:43:52;1.15;;;0.70;;
73084;SDS011;62974;49.460;10.892;2023-03-30T12:46:41;1.27;;;1.00;;
73084;SDS011;62974;49.460;10.892;2023-03-30T12:49:20;3.05;;;1.10;;
73084;SDS011;62974;49.460;10.892;2023-03-30T12:52:00;5.57;;;1.38;;
73084;SDS011;62974;49.460;10.892;2023-03-30T12:54:38;2.95;;;1.20;;
73084;SDS011;62974;49.460;10.892;2023-03-30T12:57:17;1.08;;;0.70;;
73084;SDS011;62974;49.460;10.892;2023-03-30T13:00:01;4.53;;;1.48;;
73084;SDS011;62974;49.460;10.892;2023-03-30T13:02:46;5.05;;;1.40;;
73084;SDS011;62974;49.460;10.892;2023-03-30T13:05:28;1.33;;;0.85;;
73084;SDS011;62974;49.460;10.892;2023-03-30T13:08:00;1.48;;;0.65;;
73084;SDS011;62974;49.460;10.892;2023-03-30T13:10:34;3.90;;;2.08;;
73084;SDS011;62974;49.460;10.892;2023-03-30T13:13:04;2.60;;;1.15;;
73084;SDS011;62974;49.460;10.892;2023-03-30T13:15:36;1.08;;;0.30;;
73084;SDS011;62974;49.460;10.892;2023-03-30T13:21:18;2.17;;;1.23;;
73084;SDS011;62974;49.460;10.892;2023-03-30T13:26:51;2.78;;;1.27;;
73084;SDS011;62974;49.460;10.892;2023-03-30T13:29:21;2.25;;;1.10;;
73084;SDS011;62974;49.460;10.892;2023-03-30T13:32:06;1.15;;;0.77;;
73084;SDS011;62974;49.460;10.892;2023-03-30T13:34:48;1.58;;;0.93;;
73084;SDS011;62974;49.460;10.892;2023-03-30T13:37:36;3.65;;;1.30;;
73084;SDS011;62974;49.460;10.892;2023-03-30T13:40:16;3.65;;;1.38;;
73084;SDS011;62974;49.460;10.892;2023-03-30T13:43:07;1.17;;;0.70;;
73084;SDS011;62974;49.460;10.892;2023-03-30T13:45:46;2.30;;;1.25;;
73084;SDS011;62974;49.460;10.892;2023-03-30T13:48:40;3.75;;;1.10;;
73084;SDS011;62974;49.460;10.892;2023-03-30T13:51:23;3.22;;;1.08;;
73084;SDS011;62974;49.460;10.892;2023-03-30T13:53:53;2.00;;;1.02;;
73084;SDS011;62974;49.460;10.892;2023-03-30T13:56:24;5.15;;;1.00;;
73084;SDS011;62974;49.460;10.892;2023-03-30T14:01:24;3.05;;;1.50;;
73084;SDS011;62974;49.460;10.892;2023-03-30T14:03:54;3.08;;;0.88;;
73084;SDS011;62974;49.460;10.892;2023-03-30T14:06:23;1.27;;;0.80;;
73084;SDS011;62974;49.460;10.892;2023-03-30T14:08:57;2.78;;;1.40;;
73084;SDS011;62974;49.460;10.892;2023-03-30T14:11:47;3.22;;;1.58;;
73084;SDS011;62974;49.460;10.892;2023-03-30T14:14:17;2.80;;;0.88;;
73084;SDS011;62974;49.460;10.892;2023-03-30T14:16:48;2.55;;;1.30;;
73084;SDS011;62974;49.460;10.892;2023-03-30T14:19:20;4.35;;;1.60;;
73084;SDS011;62974;49.460;10.892;2023-03-30T14:21:52;4.57;;;1.23;;
73084;SDS011;62974;49.460;10.892;2023-03-30T14:24:28;1.10;;;0.80;;
73084;SDS011;62974;49.460;10.892;2023-03-30T14:26:59;2.45;;;1.40;;
73084;SDS011;62974;49.460;10.892;2023-03-30T14:29:29;1.92;;;1.15;;
73084;SDS011;62974;49.460;10.892;2023-03-30T14:34:36;2.92;;;1.17;;
73084;SDS011;62974;49.460;10.892;2023-03-30T14:37:04;1.17;;;0.55;;
73084;SDS011;62974;49.460;10.892;2023-03-30T14:39:37;2.78;;;1.15;;
73084;SDS011;62974;49.460;10.892;2023-03-30T14:42:08;3.30;;;1.50;;
73084;SDS011;62974;49.460;10.892;2023-03-30T14:47:10;2.60;;;1.13;;
73084;SDS011;62974;49.460;10.892;2023-03-30T14:49:39;5.53;;;1.42;;
73084;SDS011;62974;49.460;10.892;2023-03-30T14:52:13;4.22;;;1.20;;
73084;SDS011;62974;49.460;10.892;2023-03-30T14:54:43;0.95;;;0.75;;
73084;SDS011;62974;49.460;10.892;2023-03-30T14:57:29;1.33;;;0.60;;
73084;SDS011;62974;49.460;10.892;2023-03-30T15:00:03;1.77;;;0.88;;
73084;SDS011;62974;49.460;10.892;2023-03-30T15:02:46;4.45;;;1.50;;
73084;SDS011;62974;49.460;10.892;2023-03-30T15:05:22;2.95;;;1.10;;
73084;SDS011;62974;49.460;10.892;2023-03-30T15:07:52;0.52;;;0.28;;
73084;SDS011;62974;49.460;10.892;2023-03-30T15:10:21;4.80;;;0.60;;
73084;SDS011;62974;49.460;10.892;2023-03-30T15:12:51;2.97;;;1.60;;
73084;SDS011;62974;49.460;10.892;2023-03-30T15:15:23;2.05;;;0.93;;
73084;SDS011;62974;49.460;10.892;2023-03-30T15:17:53;5.90;;;1.63;;
73084;SDS011;62974;49.460;10.892;2023-03-30T15:20:23;3.55;;;0.88;;
73084;SDS011;62974;49.460;10.892;2023-03-30T15:22:56;4.75;;;1.23;;
73084;SDS011;62974;49.460;10.892;2023-03-30T15:25:27;2.55;;;1.33;;
73084;SDS011;62974;49.460;10.892;2023-03-30T15:27:58;1.15;;;0.57;;
73084;SDS011;62974;49.460;10.892;2023-03-30T15:30:32;1.10;;;0.60;;
73084;SDS011;62974;49.460;10.892;2023-03-30T15:33:01;1.08;;;0.70;;
73084;SDS011;62974;49.460;10.892;2023-03-30T15:35:32;4.03;;;0.95;;
73084;SDS011;62974;49.460;10.892;2023-03-30T15:38:02;1.00;;;0.82;;
73084;SDS011;62974;49.460;10.892;2023-03-30T15:40:40;2.63;;;1.55;;
73084;SDS011;62974;49.460;10.892;2023-03-30T15:43:12;4.50;;;1.05;;
73084;SDS011;62974;49.460;10.892;2023-03-30T15:45:43;2.30;;;1.02;;
73084;SDS011;62974;49.460;10.892;2023-03-30T15:48:14;1.75;;;0.55;;
73084;SDS011;62974;49.460;10.892;2023-03-30T15:50:46;2.30;;;0.90;;
73084;SDS011;62974;49.460;10.892;2023-03-30T15:53:27;2.28;;;0.80;;
73084;SDS011;62974;49.460;10.892;2023-03-30T15:56:01;2.47;;;0.88;;
73084;SDS011;62974;49.460;10.892;2023-03-30T15:58:29;2.00;;;0.85;;
73084;SDS011;62974;49.460;10.892;2023-03-30T16:01:01;3.78;;;0.90;;
73084;SDS011;62974;49.460;10.892;2023-03-30T16:03:34;1.45;;;0.90;;
73084;SDS011;62974;49.460;10.892;2023-03-30T16:06:09;2.63;;;0.85;;
73084;SDS011;62974;49.460;10.892;2023-03-30T16:08:39;1.30;;;1.02;;
73084;SDS011;62974;49.460;10.892;2023-03-30T16:11:09;2.83;;;0.60;;
73084;SDS011;62974;49.460;10.892;2023-03-30T16:13:40;2.35;;;0.57;;
73084;SDS011;62974;49.460;10.892;2023-03-30T16:16:09;1.75;;;0.75;;
73084;SDS011;62974;49.460;10.892;2023-03-30T16:18:39;3.55;;;1.08;;
73084;SDS011;62974;49.460;10.892;2023-03-30T16:21:09;2.30;;;0.80;;
73084;SDS011;62974;49.460;10.892;2023-03-30T16:23:37;0.30;;;0.30;;
73084;SDS011;62974;49.460;10.892;2023-03-30T16:26:05;3.28;;;0.73;;
73084;SDS011;62974;49.460;10.892;2023-03-30T16:28:36;4.63;;;1.10;;
73084;SDS011;62974;49.460;10.892;2023-03-30T16:31:10;2.42;;;0.73;;
73084;SDS011;62974;49.460;10.892;2023-03-30T16:33:41;3.22;;;1.15;;
73084;SDS011;62974;49.460;10.892;2023-03-30T16:36:12;2.42;;;0.93;;
73084;SDS011;62974;49.460;10.892;2023-03-30T16:38:41;2.40;;;1.23;;
73084;SDS011;62974;49.460;10.892;2023-03-30T16:41:09;1.17;;;0.98;;
73084;SDS011;62974;49.460;10.892;2023-03-30T16:43:40;0.15;;;0.15;;
73084;SDS011;62974;49.460;10.892;2023-03-30T16:46:08;1.60;;;0.70;;